createdAt,value
2023-01-11T00:00:27.967Z, 40.51
2023-01-11T00:01:27.976Z, 40.54
2023-01-11T00:02:28.088Z, 40.49
2023-01-11T00:03:28.005Z, 40.44
2023-01-11T00:04:28.031Z, 40.46
2023-01-11T00:05:28.019Z, 40.34
2023-01-11T00:06:28.093Z, 40.34
2023-01-11T00:07:28.051Z, 40.31
2023-01-11T00:08:28.046Z, 40.34
2023-01-11T00:09:28.075Z, 40.29
2023-01-11T00:10:28.051Z, 40.30
2023-01-11T00:11:28.058Z, 40.26
2023-01-11T00:12:28.069Z, 40.24
2023-01-11T00:13:28.083Z, 40.30
2023-01-11T00:14:28.123Z, 40.27
2023-01-11T00:15:28.120Z, 40.17
2023-01-11T00:16:28.247Z, 40.12
2023-01-11T00:17:28.184Z, 40.11
2023-01-11T00:18:28.250Z, 40.14
2023-01-11T00:19:28.209Z, 40.11
2023-01-11T00:20:28.215Z, 40.03
2023-01-11T00:21:28.207Z, 40.00
2023-01-11T00:22:28.219Z, 40.07
2023-01-11T00:23:28.291Z, 40.07
2023-01-11T00:24:28.262Z, 40.02
2023-01-11T00:25:28.401Z, 40.00
2023-01-11T00:26:28.276Z, 39.93
2023-01-11T00:27:28.312Z, 39.95
2023-01-11T00:28:28.374Z, 39.96
2023-01-11T00:29:28.337Z, 39.94
2023-01-11T00:30:28.373Z, 39.91
2023-01-11T00:31:28.492Z, 39.84
2023-01-11T00:32:28.398Z, 39.78
2023-01-11T00:33:28.384Z, 39.78
2023-01-11T00:34:28.377Z, 39.77
2023-01-11T00:35:28.680Z, 39.75
2023-01-11T00:36:28.432Z, 39.69
2023-01-11T00:37:28.467Z, 39.60
2023-01-11T00:38:28.463Z, 39.65
2023-01-11T00:39:28.519Z, 39.64
2023-01-11T00:40:28.502Z, 39.64
2023-01-11T00:41:28.563Z, 39.62
2023-01-11T00:42:28.533Z, 39.63
2023-01-11T00:43:28.571Z, 39.63
2023-01-11T00:44:28.545Z, 39.58
2023-01-11T00:45:28.646Z, 39.50
2023-01-11T00:46:28.633Z, 39.48
2023-01-11T00:47:28.562Z, 39.50
2023-01-11T00:48:28.647Z, 39.50
2023-01-11T00:49:28.613Z, 39.46
2023-01-11T00:50:28.625Z, 39.42
2023-01-11T00:51:28.634Z, 39.43
2023-01-11T00:52:28.641Z, 39.45
2023-01-11T00:53:28.665Z, 39.45
2023-01-11T00:54:28.654Z, 39.36
2023-01-11T00:55:28.735Z, 39.44
2023-01-11T00:56:28.712Z, 39.45
2023-01-11T00:57:28.715Z, 39.41
2023-01-11T00:58:28.810Z, 39.40
2023-01-11T00:59:28.777Z, 39.32
2023-01-11T01:00:28.773Z, 39.32
2023-01-11T01:01:28.860Z, 39.33
2023-01-11T01:02:28.827Z, 39.31
2023-01-11T01:03:28.868Z, 39.24
2023-01-11T01:04:28.834Z, 39.23
2023-01-11T01:05:28.872Z, 39.20
2023-01-11T01:06:28.935Z, 39.16
2023-01-11T01:07:28.855Z, 39.13
2023-01-11T01:08:28.935Z, 39.15
2023-01-11T01:09:28.922Z, 39.12
2023-01-11T01:10:28.963Z, 39.08
2023-01-11T01:11:28.950Z, 39.06
2023-01-11T01:12:28.947Z, 39.05
2023-01-11T01:13:28.970Z, 39.06
2023-01-11T01:14:28.944Z, 39.11
2023-01-11T01:15:29.150Z, 39.08
2023-01-11T01:16:29.018Z, 39.03
2023-01-11T01:17:29.037Z, 39.05
2023-01-11T01:18:29.054Z, 39.03
2023-01-11T01:19:29.039Z, 38.97
2023-01-11T01:20:29.060Z, 38.98
2023-01-11T01:21:29.042Z, 38.98
2023-01-11T01:22:29.119Z, 38.91
2023-01-11T01:23:29.107Z, 38.89
2023-01-11T01:24:29.099Z, 38.85
2023-01-11T01:25:29.120Z, 38.87
2023-01-11T01:26:29.115Z, 38.83
2023-01-11T01:27:29.201Z, 38.83
2023-01-11T01:28:29.184Z, 38.80
2023-01-11T01:29:29.164Z, 38.77
2023-01-11T01:30:29.197Z, 38.77
2023-01-11T01:31:29.268Z, 38.75
2023-01-11T01:32:29.289Z, 38.72
2023-01-11T01:33:29.257Z, 38.69
2023-01-11T01:34:29.269Z, 38.63
2023-01-11T01:35:29.245Z, 38.63
2023-01-11T01:36:29.253Z, 38.63
2023-01-11T01:37:29.331Z, 38.59
2023-01-11T01:38:29.322Z, 38.51
2023-01-11T01:39:29.365Z, 38.52
2023-01-11T01:40:29.350Z, 38.54
2023-01-11T01:41:29.343Z, 38.52
2023-01-11T01:42:29.440Z, 38.51
2023-01-11T01:43:29.398Z, 38.53
2023-01-11T01:44:29.443Z, 38.54
2023-01-11T01:45:29.440Z, 38.53
2023-01-11T01:46:29.539Z, 38.47
2023-01-11T01:47:29.427Z, 38.43
2023-01-11T01:48:29.451Z, 38.46
2023-01-11T01:49:29.501Z, 38.41
2023-01-11T01:50:29.471Z, 38.41
2023-01-11T01:51:29.479Z, 38.39
2023-01-11T01:52:29.504Z, 38.36
2023-01-11T01:53:29.526Z, 38.41
2023-01-11T01:54:29.576Z, 38.38
2023-01-11T01:55:29.561Z, 38.36
2023-01-11T01:56:29.608Z, 38.38
2023-01-11T01:57:29.589Z, 38.33
2023-01-11T01:58:29.590Z, 38.30
2023-01-11T01:59:29.588Z, 38.30
2023-01-11T02:00:29.634Z, 38.23
2023-01-11T02:01:29.673Z, 38.25
2023-01-11T02:02:29.680Z, 38.27
2023-01-11T02:03:29.643Z, 38.19
2023-01-11T02:04:29.662Z, 38.15
2023-01-11T02:05:29.758Z, 38.09
2023-01-11T02:06:29.756Z, 38.06
2023-01-11T02:07:29.742Z, 38.12
2023-01-11T02:08:29.735Z, 38.13
2023-01-11T02:09:29.779Z, 38.03
2023-01-11T02:10:29.746Z, 38.01
2023-01-11T02:11:29.789Z, 37.99
2023-01-11T02:12:30.350Z, 38.01
2023-01-11T02:13:29.790Z, 38.00
2023-01-11T02:14:29.851Z, 38.01
2023-01-11T02:15:29.829Z, 37.97
2023-01-11T02:16:29.844Z, 37.93
2023-01-11T02:17:29.840Z, 37.95
2023-01-11T02:18:29.903Z, 37.91
2023-01-11T02:19:29.885Z, 37.92
2023-01-11T02:20:29.928Z, 37.85
2023-01-11T02:21:30.025Z, 37.89
2023-01-11T02:22:29.926Z, 37.86
2023-01-11T02:23:29.982Z, 37.84
2023-01-11T02:24:29.969Z, 37.83
2023-01-11T02:25:29.988Z, 37.83
2023-01-11T02:26:29.972Z, 37.81
2023-01-11T02:27:30.064Z, 37.76
2023-01-11T02:28:30.047Z, 37.69
2023-01-11T02:29:30.022Z, 37.73
2023-01-11T02:30:30.065Z, 37.74
2023-01-11T02:31:30.095Z, 37.67
2023-01-11T02:32:30.092Z, 37.62
2023-01-11T02:33:30.085Z, 37.61
2023-01-11T02:34:30.147Z, 37.63
2023-01-11T02:35:30.133Z, 37.62
2023-01-11T02:36:30.120Z, 37.59
2023-01-11T02:37:30.117Z, 37.60
2023-01-11T02:38:30.152Z, 37.59
2023-01-11T02:39:30.152Z, 37.53
2023-01-11T02:40:30.174Z, 37.53
2023-01-11T02:41:30.237Z, 37.54
2023-01-11T02:42:30.222Z, 37.55
2023-01-11T02:43:30.269Z, 37.57
2023-01-11T02:44:30.227Z, 37.54
2023-01-11T02:45:30.281Z, 37.56
2023-01-11T02:46:30.301Z, 37.54
2023-01-11T02:47:30.274Z, 37.54
2023-01-11T02:48:30.343Z, 37.44
2023-01-11T02:49:30.330Z, 37.42
2023-01-11T02:50:30.389Z, 37.43
2023-01-11T02:51:30.363Z, 37.41
2023-01-11T02:52:30.412Z, 37.44
2023-01-11T02:53:30.385Z, 37.42
2023-01-11T02:54:30.380Z, 37.42
2023-01-11T02:55:30.462Z, 37.36
2023-01-11T02:56:30.428Z, 37.41
2023-01-11T02:57:30.476Z, 37.38
2023-01-11T02:58:30.468Z, 37.32
2023-01-11T02:59:30.454Z, 37.33
2023-01-11T03:00:30.506Z, 37.33
2023-01-11T03:01:30.521Z, 37.32
2023-01-11T03:02:30.567Z, 37.28
2023-01-11T03:03:30.511Z, 37.22
2023-01-11T03:04:30.511Z, 37.17
2023-01-11T03:05:30.514Z, 37.23
2023-01-11T03:06:30.594Z, 37.16
2023-01-11T03:07:30.550Z, 37.13
2023-01-11T03:08:30.568Z, 37.11
2023-01-11T03:09:30.580Z, 37.15
2023-01-11T03:10:30.581Z, 37.14
2023-01-11T03:11:30.583Z, 37.08
2023-01-11T03:12:30.617Z, 37.09
2023-01-11T03:13:30.704Z, 37.16
2023-01-11T03:14:30.673Z, 37.08
2023-01-11T03:15:30.734Z, 37.04
2023-01-11T03:16:30.767Z, 36.99
2023-01-11T03:17:30.744Z, 36.97
2023-01-11T03:18:30.751Z, 36.92
2023-01-11T03:19:30.718Z, 36.93
2023-01-11T03:20:30.796Z, 36.95
2023-01-11T03:21:30.760Z, 36.94
2023-01-11T03:22:30.814Z, 36.90
2023-01-11T03:23:30.816Z, 36.93
2023-01-11T03:24:30.803Z, 36.95
2023-01-11T03:25:30.805Z, 36.93
2023-01-11T03:26:30.812Z, 36.90
2023-01-11T03:27:30.838Z, 36.92
2023-01-11T03:28:30.834Z, 36.91
2023-01-11T03:29:30.935Z, 36.90
2023-01-11T03:30:30.882Z, 36.90
2023-01-11T03:31:31.030Z, 36.91
2023-01-11T03:32:30.923Z, 36.86
2023-01-11T03:33:30.933Z, 36.85
2023-01-11T03:34:30.917Z, 36.81
2023-01-11T03:35:30.932Z, 36.77
2023-01-11T03:36:30.985Z, 36.75
2023-01-11T03:37:30.962Z, 36.69
2023-01-11T03:38:31.066Z, 36.69
2023-01-11T03:39:31.033Z, 36.69
2023-01-11T03:40:31.079Z, 36.68
2023-01-11T03:41:31.051Z, 36.68
2023-01-11T03:42:31.091Z, 36.68
2023-01-11T03:43:31.086Z, 36.66
2023-01-11T03:44:31.125Z, 36.64
2023-01-11T03:45:31.112Z, 36.61
2023-01-11T03:46:31.198Z, 36.59
2023-01-11T03:47:31.099Z, 36.67
2023-01-11T03:48:31.128Z, 36.60
2023-01-11T03:49:31.123Z, 36.58
2023-01-11T03:50:31.128Z, 36.55
2023-01-11T03:51:31.219Z, 36.52
2023-01-11T03:52:31.181Z, 36.50
2023-01-11T03:53:31.253Z, 36.51
2023-01-11T03:54:31.210Z, 36.51
2023-01-11T03:55:31.209Z, 36.45
2023-01-11T03:56:31.271Z, 36.33
2023-01-11T03:57:31.288Z, 36.35
2023-01-11T03:58:31.301Z, 36.35
2023-01-11T03:59:31.279Z, 36.34
2023-01-11T04:00:31.336Z, 36.37
2023-01-11T04:01:31.319Z, 36.38
2023-01-11T04:02:31.300Z, 36.35
2023-01-11T04:03:31.385Z, 36.30
2023-01-11T04:04:31.412Z, 36.27
2023-01-11T04:05:31.414Z, 36.27
2023-01-11T04:06:31.396Z, 36.29
2023-01-11T04:07:31.402Z, 36.22
2023-01-11T04:08:31.411Z, 36.21
2023-01-11T04:09:31.391Z, 36.21
2023-01-11T04:10:31.417Z, 36.24
2023-01-11T04:11:31.429Z, 36.28
2023-01-11T04:12:31.456Z, 36.24
2023-01-11T04:13:31.499Z, 36.25
2023-01-11T04:14:31.497Z, 36.21
2023-01-11T04:15:31.477Z, 36.12
2023-01-11T04:16:31.622Z, 36.15
2023-01-11T04:17:31.541Z, 36.13
2023-01-11T04:18:31.589Z, 36.10
2023-01-11T04:19:31.558Z, 36.10
2023-01-11T04:20:31.619Z, 36.12
2023-01-11T04:21:31.614Z, 36.08
2023-01-11T04:22:31.623Z, 36.07
2023-01-11T04:23:31.616Z, 36.02
2023-01-11T04:24:31.601Z, 36.03
2023-01-11T04:25:31.637Z, 36.05
2023-01-11T04:26:31.649Z, 36.00
2023-01-11T04:27:31.729Z, 36.02
2023-01-11T04:28:31.704Z, 35.99
2023-01-11T04:29:31.717Z, 35.99
2023-01-11T04:30:31.702Z, 36.00
2023-01-11T04:31:31.739Z, 36.77
2023-01-11T04:32:31.751Z, 37.88
2023-01-11T04:33:31.745Z, 38.09
2023-01-11T04:34:31.825Z, 38.10
2023-01-11T04:35:31.795Z, 38.05
2023-01-11T04:36:31.838Z, 37.99
2023-01-11T04:37:31.799Z, 37.97
2023-01-11T04:38:31.872Z, 37.83
2023-01-11T04:39:31.843Z, 37.58
2023-01-11T04:40:31.860Z, 37.17
2023-01-11T04:41:31.883Z, 36.81
2023-01-11T04:42:31.849Z, 40.80
2023-01-11T04:43:31.876Z, 45.20
2023-01-11T04:44:31.878Z, 47.52
2023-01-11T04:45:32.001Z, 46.39
2023-01-11T04:46:31.938Z, 44.09
2023-01-11T04:47:31.964Z, 41.64
2023-01-11T04:48:31.954Z, 39.41
2023-01-11T04:49:31.946Z, 37.04
2023-01-11T04:50:32.082Z, 33.84
2023-01-11T04:51:31.977Z, 29.93
2023-01-11T04:52:32.062Z, 27.65
2023-01-11T04:53:32.042Z, 32.67
2023-01-11T04:54:32.037Z, 38.08
2023-01-11T04:55:32.036Z, 41.93
2023-01-11T04:56:32.049Z, 44.62
2023-01-11T04:57:32.065Z, 46.82
2023-01-11T04:58:32.096Z, 47.89
2023-01-11T04:59:32.074Z, 46.49
2023-01-11T05:00:32.093Z, 44.51
2023-01-11T05:01:32.267Z, 44.70
2023-01-11T05:02:32.155Z, 45.70
2023-01-11T05:03:32.237Z, 47.90
2023-01-11T05:04:32.234Z, 50.03
2023-01-11T05:05:32.216Z, 53.04
2023-01-11T05:06:32.326Z, 56.22
2023-01-11T05:07:32.198Z, 59.95
2023-01-11T05:08:32.263Z, 68.62
2023-01-11T05:09:32.218Z, 53.96
2023-01-11T05:10:32.287Z, 52.75
2023-01-11T05:11:32.257Z, 54.01
2023-01-11T05:12:32.336Z, 55.27
2023-01-11T05:13:32.310Z, 57.72
2023-01-11T05:14:32.305Z, 61.20
2023-01-11T05:15:32.385Z, 66.68
2023-01-11T05:16:32.366Z, 53.81
2023-01-11T05:17:32.385Z, 53.90
2023-01-11T05:18:32.375Z, 55.05
2023-01-11T05:19:32.435Z, 56.82
2023-01-11T05:20:32.415Z, 59.74
2023-01-11T05:21:32.421Z, 67.74
2023-01-11T05:22:32.422Z, 61.77
2023-01-11T05:23:32.459Z, 53.69
2023-01-11T05:24:32.434Z, 54.87
2023-01-11T05:25:32.444Z, 55.98
2023-01-11T05:26:34.630Z, 56.75
2023-01-11T05:27:32.498Z, 57.42
2023-01-11T05:28:32.506Z, 58.42
2023-01-11T05:29:32.564Z, 59.99
2023-01-11T05:30:32.533Z, 59.47
2023-01-11T05:31:32.604Z, 58.80
2023-01-11T05:32:32.531Z, 58.13
2023-01-11T05:33:32.561Z, 57.68
2023-01-11T05:34:32.557Z, 57.55
2023-01-11T05:35:32.588Z, 57.08
2023-01-11T05:36:32.653Z, 56.07
2023-01-11T05:37:32.650Z, 55.36
2023-01-11T05:38:32.652Z, 55.04
2023-01-11T05:39:32.636Z, 54.61
2023-01-11T05:40:32.637Z, 54.18
2023-01-11T05:41:32.725Z, 53.73
2023-01-11T05:42:32.708Z, 53.26
2023-01-11T05:43:32.710Z, 52.80
2023-01-11T05:44:32.796Z, 52.35
2023-01-11T05:45:32.902Z, 51.94
2023-01-11T05:46:32.792Z, 51.55
2023-01-11T05:47:32.788Z, 51.20
2023-01-11T05:48:32.838Z, 50.89
2023-01-11T05:49:32.794Z, 50.52
2023-01-11T05:50:32.850Z, 50.14
2023-01-11T05:51:32.830Z, 49.83
2023-01-11T05:52:32.900Z, 49.50
2023-01-11T05:53:32.867Z, 49.14
2023-01-11T05:54:32.856Z, 48.78
2023-01-11T05:55:32.850Z, 48.42
2023-01-11T05:56:32.852Z, 48.12
2023-01-11T05:57:32.871Z, 47.75
2023-01-11T05:58:32.890Z, 47.41
2023-01-11T05:59:32.920Z, 47.02
2023-01-11T06:00:32.920Z, 46.66
2023-01-11T06:01:32.917Z, 46.28
2023-01-11T06:02:33.095Z, 45.88
2023-01-11T06:03:32.969Z, 45.51
2023-01-11T06:04:32.968Z, 45.08
2023-01-11T06:05:32.979Z, 44.75
2023-01-11T06:06:33.250Z, 44.36
2023-01-11T06:07:33.032Z, 44.03
2023-01-11T06:08:33.037Z, 43.67
2023-01-11T06:09:33.039Z, 43.31
2023-01-11T06:10:33.118Z, 43.00
2023-01-11T06:11:33.124Z, 42.67
2023-01-11T06:12:33.095Z, 42.34
2023-01-11T06:13:33.160Z, 42.05
2023-01-11T06:14:33.133Z, 41.75
2023-01-11T06:15:33.124Z, 41.45
2023-01-11T06:16:33.323Z, 41.32
2023-01-11T06:17:33.174Z, 41.18
2023-01-11T06:18:33.226Z, 41.01
2023-01-11T06:19:33.225Z, 40.79
2023-01-11T06:20:33.266Z, 40.57
2023-01-11T06:21:33.220Z, 40.39
2023-01-11T06:22:33.269Z, 40.23
2023-01-11T06:23:33.378Z, 40.07
2023-01-11T06:24:33.251Z, 39.92
2023-01-11T06:25:33.251Z, 39.78
2023-01-11T06:26:33.261Z, 39.63
2023-01-11T06:27:33.276Z, 39.50
2023-01-11T06:28:33.285Z, 39.42
2023-01-11T06:29:33.289Z, 39.26
2023-01-11T06:30:33.395Z, 39.19
2023-01-11T06:31:33.332Z, 39.08
2023-01-11T06:32:33.398Z, 38.96
2023-01-11T06:33:33.397Z, 38.86
2023-01-11T06:34:33.385Z, 38.81
2023-01-11T06:35:33.384Z, 38.72
2023-01-11T06:36:33.422Z, 38.62
2023-01-11T06:37:33.408Z, 38.58
2023-01-11T06:38:33.468Z, 38.48
2023-01-11T06:39:33.497Z, 38.42
2023-01-11T06:40:33.451Z, 38.35
2023-01-11T06:41:33.536Z, 38.28
2023-01-11T06:42:33.486Z, 38.19
2023-01-11T06:43:33.513Z, 38.12
2023-01-11T06:44:33.509Z, 38.05
2023-01-11T06:45:33.512Z, 38.00
2023-01-11T06:46:33.688Z, 37.93
2023-01-11T06:47:33.534Z, 37.85
2023-01-11T06:48:33.619Z, 37.81
2023-01-11T06:49:33.579Z, 37.77
2023-01-11T06:50:33.665Z, 37.73
2023-01-11T06:51:33.650Z, 37.69
2023-01-11T06:52:33.648Z, 37.64
2023-01-11T06:53:33.651Z, 37.58
2023-01-11T06:54:33.638Z, 37.49
2023-01-11T06:55:33.653Z, 37.43
2023-01-11T06:56:33.660Z, 37.37
2023-01-11T06:57:33.695Z, 37.39
2023-01-11T06:58:33.742Z, 37.29
2023-01-11T06:59:33.706Z, 37.22
2023-01-11T07:00:33.786Z, 37.17
2023-01-11T07:01:33.926Z, 37.09
2023-01-11T07:02:33.761Z, 37.06
2023-01-11T07:03:33.791Z, 37.00
2023-01-11T07:04:33.772Z, 36.92
2023-01-11T07:05:33.908Z, 36.85
2023-01-11T07:06:33.797Z, 36.83
2023-01-11T07:07:33.826Z, 36.80
2023-01-11T07:08:33.819Z, 36.78
2023-01-11T07:09:33.815Z, 36.70
2023-01-11T07:10:33.835Z, 36.67
2023-01-11T07:11:33.869Z, 36.66
2023-01-11T07:12:33.939Z, 36.57
2023-01-11T07:13:33.915Z, 36.54
2023-01-11T07:14:33.938Z, 36.47
2023-01-11T07:15:33.956Z, 36.48
2023-01-11T07:16:33.920Z, 36.46
2023-01-11T07:17:33.917Z, 36.38
2023-01-11T07:18:33.930Z, 36.36
2023-01-11T07:19:33.936Z, 36.31
2023-01-11T07:20:33.946Z, 36.26
2023-01-11T07:21:34.019Z, 36.26
2023-01-11T07:22:33.992Z, 36.24
2023-01-11T07:23:34.004Z, 36.18
2023-01-11T07:24:33.996Z, 36.11
2023-01-11T07:25:33.991Z, 36.11
2023-01-11T07:26:34.098Z, 36.09
2023-01-11T07:27:34.051Z, 36.05
2023-01-11T07:28:34.139Z, 36.05
2023-01-11T07:29:34.122Z, 36.03
2023-01-11T07:30:44.579Z, 36.01
2023-01-11T07:31:34.174Z, 35.96
2023-01-11T07:32:34.122Z, 35.91
2023-01-11T07:33:34.127Z, 35.93
2023-01-11T07:34:34.191Z, 35.89
2023-01-11T07:35:34.131Z, 35.84
2023-01-11T07:36:34.191Z, 35.81
2023-01-11T07:37:34.184Z, 35.77
2023-01-11T07:38:34.183Z, 35.77
2023-01-11T07:39:42.867Z, 35.76
2023-01-11T07:40:34.205Z, 35.70
2023-01-11T07:41:34.248Z, 35.62
2023-01-11T07:42:34.224Z, 35.63
2023-01-11T07:43:34.261Z, 35.59
2023-01-11T07:44:34.248Z, 35.56
2023-01-11T07:45:44.645Z, 35.58
2023-01-11T07:46:34.419Z, 35.55
2023-01-11T07:47:34.287Z, 35.51
2023-01-11T07:48:34.317Z, 35.51
2023-01-11T07:49:34.283Z, 35.46
2023-01-11T07:50:34.296Z, 35.43
2023-01-11T07:51:34.292Z, 35.36
2023-01-11T07:52:34.316Z, 35.32
2023-01-11T07:53:34.326Z, 35.35
2023-01-11T07:54:34.379Z, 35.33
2023-01-11T07:55:34.419Z, 35.30
2023-01-11T07:56:34.379Z, 35.31
2023-01-11T07:57:34.433Z, 35.24
2023-01-11T07:58:34.446Z, 35.21
2023-01-11T07:59:34.478Z, 35.19
2023-01-11T08:00:34.448Z, 35.19
2023-01-11T08:01:34.443Z, 35.14
2023-01-11T08:02:34.562Z, 35.13
2023-01-11T08:03:34.726Z, 35.10
2023-01-11T08:04:34.489Z, 35.14
2023-01-11T08:05:34.463Z, 35.12
2023-01-11T08:06:34.539Z, 35.13
2023-01-11T08:07:34.507Z, 35.09
2023-01-11T08:08:34.567Z, 35.03
2023-01-11T08:09:34.565Z, 34.99
2023-01-11T08:10:34.532Z, 35.01
2023-01-11T08:11:34.576Z, 34.98
2023-01-11T08:12:34.586Z, 34.98
2023-01-11T08:13:34.583Z, 34.95
2023-01-11T08:14:34.578Z, 34.85
2023-01-11T08:15:34.681Z, 34.81
2023-01-11T08:16:34.620Z, 34.80
2023-01-11T08:17:34.674Z, 34.82
2023-01-11T08:18:34.655Z, 34.83
2023-01-11T08:19:34.655Z, 34.80
2023-01-11T08:20:34.640Z, 34.76
2023-01-11T08:21:34.667Z, 34.76
2023-01-11T08:22:34.673Z, 34.75
2023-01-11T08:23:34.665Z, 34.67
2023-01-11T08:24:34.760Z, 34.65
2023-01-11T08:25:34.742Z, 34.65
2023-01-11T08:26:34.702Z, 34.62
2023-01-11T08:27:34.763Z, 34.56
2023-01-11T08:28:34.763Z, 34.55
2023-01-11T08:29:34.802Z, 34.54
2023-01-11T08:30:34.756Z, 34.52
2023-01-11T08:31:34.800Z, 34.52
2023-01-11T08:32:34.797Z, 34.50
2023-01-11T08:33:34.853Z, 34.51
2023-01-11T08:34:34.808Z, 34.53
2023-01-11T08:35:34.807Z, 34.54
2023-01-11T08:36:34.831Z, 34.48
2023-01-11T08:37:34.820Z, 34.41
2023-01-11T08:38:34.844Z, 34.36
2023-01-11T08:39:34.842Z, 34.44
2023-01-11T08:40:34.905Z, 34.45
2023-01-11T08:41:34.875Z, 34.38
2023-01-11T08:42:34.933Z, 34.31
2023-01-11T08:43:34.937Z, 34.34
2023-01-11T08:44:35.276Z, 34.30
2023-01-11T08:45:34.922Z, 34.31
2023-01-11T08:46:35.060Z, 34.30
2023-01-11T08:47:34.978Z, 34.24
2023-01-11T08:48:34.971Z, 34.26
2023-01-11T08:49:35.012Z, 34.16
2023-01-11T08:50:34.996Z, 34.15
2023-01-11T08:51:35.025Z, 34.18
2023-01-11T08:52:35.007Z, 34.17
2023-01-11T08:53:35.007Z, 34.15
2023-01-11T08:54:35.080Z, 34.18
2023-01-11T08:55:35.048Z, 34.11
2023-01-11T08:56:35.040Z, 34.08
2023-01-11T08:57:35.038Z, 34.07
2023-01-11T08:58:35.080Z, 34.05
2023-01-11T08:59:35.060Z, 34.02
2023-01-11T09:00:35.082Z, 34.06
2023-01-11T09:01:35.215Z, 34.03
2023-01-11T09:02:35.165Z, 34.02
2023-01-11T09:03:35.185Z, 34.03
2023-01-11T09:04:35.119Z, 33.98
2023-01-11T09:05:35.171Z, 33.96
2023-01-11T09:06:35.163Z, 33.94
2023-01-11T09:07:35.158Z, 33.93
2023-01-11T09:08:35.167Z, 33.91
2023-01-11T09:09:35.210Z, 33.90
2023-01-11T09:10:35.236Z, 33.86
2023-01-11T09:11:35.224Z, 33.82
2023-01-11T09:12:35.216Z, 33.85
2023-01-11T09:13:35.217Z, 33.83
2023-01-11T09:14:35.211Z, 33.80
2023-01-11T09:15:35.260Z, 33.81
2023-01-11T09:16:35.233Z, 33.79
2023-01-11T09:17:35.237Z, 33.77
2023-01-11T09:18:35.247Z, 33.84
2023-01-11T09:19:35.258Z, 33.81
2023-01-11T09:20:35.270Z, 33.79
2023-01-11T09:21:35.290Z, 33.75
2023-01-11T09:22:35.345Z, 33.75
2023-01-11T09:23:35.343Z, 33.77
2023-01-11T09:24:35.387Z, 33.70
2023-01-11T09:25:35.346Z, 33.66
2023-01-11T09:26:35.396Z, 33.65
2023-01-11T09:27:35.418Z, 33.66
2023-01-11T09:28:35.388Z, 33.66
2023-01-11T09:29:37.263Z, 33.63
2023-01-11T09:30:35.409Z, 33.62
2023-01-11T09:31:35.455Z, 33.60
2023-01-11T09:32:35.480Z, 33.59
2023-01-11T09:33:35.468Z, 33.56
2023-01-11T09:34:35.518Z, 33.54
2023-01-11T09:35:35.500Z, 33.52
2023-01-11T09:36:35.480Z, 33.53
2023-01-11T09:37:35.509Z, 33.53
2023-01-11T09:38:35.548Z, 33.50
2023-01-11T09:39:35.524Z, 33.47
2023-01-11T09:40:35.519Z, 33.46
2023-01-11T09:41:35.532Z, 33.46
2023-01-11T09:42:35.591Z, 33.42
2023-01-11T09:43:35.663Z, 33.40
2023-01-11T09:44:35.631Z, 33.37
2023-01-11T09:45:35.755Z, 33.37
2023-01-11T09:46:35.796Z, 33.34
2023-01-11T09:47:35.650Z, 33.38
2023-01-11T09:48:35.669Z, 33.34
2023-01-11T09:49:35.659Z, 33.29
2023-01-11T09:50:35.667Z, 33.28
2023-01-11T09:51:35.684Z, 33.31
2023-01-11T09:52:35.703Z, 33.29
2023-01-11T09:53:35.811Z, 33.23
2023-01-11T09:54:35.758Z, 33.20
2023-01-11T09:55:35.752Z, 33.20
2023-01-11T09:56:35.754Z, 33.20
2023-01-11T09:57:35.759Z, 33.19
2023-01-11T09:58:35.856Z, 33.18
2023-01-11T09:59:35.901Z, 33.15
2023-01-11T10:00:35.983Z, 33.13
2023-01-11T10:01:35.891Z, 33.13
2023-01-11T10:02:35.906Z, 33.11
2023-01-11T10:03:35.903Z, 33.09
2023-01-11T10:04:35.939Z, 33.13
2023-01-11T10:05:35.937Z, 33.14
2023-01-11T10:06:35.919Z, 33.11
2023-01-11T10:07:35.918Z, 33.09
2023-01-11T10:18:28.389Z, 32.97
2023-01-11T10:18:33.077Z, 32.92
2023-01-11T10:18:33.751Z, 32.92
2023-01-11T10:18:35.337Z, 32.90
2023-01-11T10:18:54.146Z, 32.92
2023-01-11T10:19:40.622Z, 32.91
2023-01-11T10:20:36.201Z, 32.93
2023-01-11T10:21:36.184Z, 32.87
2023-01-11T10:22:36.141Z, 32.84
2023-01-11T10:23:36.152Z, 32.84
2023-01-11T10:24:36.142Z, 32.85
2023-01-11T10:25:36.152Z, 32.89
2023-01-11T10:26:36.399Z, 32.88
2023-01-11T10:27:36.324Z, 32.84
2023-01-11T10:28:36.289Z, 32.84
2023-01-11T10:29:36.258Z, 32.87
2023-01-11T10:30:36.250Z, 32.83
2023-01-11T10:31:36.380Z, 32.80
2023-01-11T10:32:36.312Z, 32.79
2023-01-11T10:33:36.364Z, 32.78
2023-01-11T10:34:36.352Z, 32.80
2023-01-11T10:35:36.332Z, 32.79
2023-01-11T10:36:36.336Z, 32.72
2023-01-11T10:37:36.389Z, 32.71
2023-01-11T10:38:36.373Z, 32.70
2023-01-11T10:39:36.375Z, 32.70
2023-01-11T10:40:36.378Z, 32.72
2023-01-11T10:41:36.373Z, 32.75
2023-01-11T10:42:36.465Z, 32.68
2023-01-11T10:43:36.431Z, 32.65
2023-01-11T10:44:36.507Z, 32.64
2023-01-11T10:45:36.537Z, 32.64
2023-01-11T10:46:36.493Z, 32.63
2023-01-11T10:47:36.521Z, 32.58
2023-01-11T10:48:36.490Z, 32.55
2023-01-11T10:49:36.592Z, 32.57
2023-01-11T10:50:36.537Z, 32.52
2023-01-11T10:51:36.521Z, 32.52
2023-01-11T10:52:36.597Z, 32.53
2023-01-11T10:53:36.576Z, 32.51
2023-01-11T10:54:36.565Z, 32.52
2023-01-11T10:55:36.598Z, 32.44
2023-01-11T10:56:36.582Z, 32.45
2023-01-11T10:57:36.669Z, 32.44
2023-01-11T10:58:36.646Z, 32.46
2023-01-11T10:59:36.705Z, 32.43
2023-01-11T11:00:36.828Z, 32.45
2023-01-11T11:01:36.678Z, 33.11
2023-01-11T11:02:36.788Z, 33.97
2023-01-11T11:03:36.692Z, 34.23
2023-01-11T11:04:36.691Z, 34.24
2023-01-11T11:05:36.705Z, 34.20
2023-01-11T11:06:36.723Z, 34.09
2023-01-11T11:07:36.801Z, 33.81
2023-01-11T11:08:36.789Z, 33.70
2023-01-11T11:09:36.815Z, 38.44
2023-01-11T11:10:36.787Z, 43.81
2023-01-11T11:11:36.871Z, 44.52
2023-01-11T11:12:36.846Z, 42.23
2023-01-11T11:13:36.902Z, 40.14
2023-01-11T11:14:36.850Z, 38.22
2023-01-11T11:15:36.875Z, 36.64
2023-01-11T11:16:36.889Z, 35.05
2023-01-11T11:17:36.893Z, 32.57
2023-01-11T11:18:36.882Z, 29.90
2023-01-11T11:19:36.874Z, 27.61
2023-01-11T11:20:36.982Z, 27.36
2023-01-11T11:21:36.963Z, 33.03
2023-01-11T11:22:36.998Z, 38.16
2023-01-11T11:23:36.980Z, 41.77
2023-01-11T11:24:37.005Z, 44.77
2023-01-11T11:25:36.981Z, 44.37
2023-01-11T11:26:37.050Z, 42.37
2023-01-11T11:27:37.003Z, 40.64
2023-01-11T11:28:37.010Z, 38.96
2023-01-11T11:29:37.006Z, 37.45
2023-01-11T11:30:37.015Z, 36.19
2023-01-11T11:31:37.062Z, 36.63
2023-01-11T11:32:37.236Z, 36.64
2023-01-11T11:33:37.129Z, 36.52
2023-01-11T11:34:37.109Z, 36.49
2023-01-11T11:35:37.110Z, 36.52
2023-01-11T11:36:37.108Z, 36.48
2023-01-11T11:37:37.101Z, 36.40
2023-01-11T11:38:37.115Z, 36.31
2023-01-11T11:39:37.121Z, 36.24
2023-01-11T11:40:37.127Z, 36.14
2023-01-11T11:41:37.131Z, 36.07
2023-01-11T11:42:37.140Z, 35.97
2023-01-11T11:43:37.157Z, 35.88
2023-01-11T11:44:37.260Z, 35.77
2023-01-11T11:45:37.297Z, 35.67
2023-01-11T11:46:37.269Z, 35.56
2023-01-11T11:47:37.236Z, 35.45
2023-01-11T11:48:37.234Z, 35.37
2023-01-11T11:49:37.234Z, 35.29
2023-01-11T11:50:44.735Z, 35.23
2023-01-11T11:51:37.277Z, 35.56
2023-01-11T11:52:37.279Z, 38.93
2023-01-11T11:53:37.281Z, 42.51
2023-01-11T11:54:37.279Z, 46.75
2023-01-11T11:55:37.273Z, 50.73
2023-01-11T11:56:37.300Z, 55.09
2023-01-11T11:57:37.366Z, 59.04
2023-01-11T11:58:37.356Z, 67.76
2023-01-11T11:59:37.352Z, 56.12
2023-01-11T12:00:37.349Z, 52.15
2023-01-11T12:01:37.367Z, 53.23
2023-01-11T12:02:37.372Z, 54.32
2023-01-11T12:03:37.380Z, 56.42
2023-01-11T12:04:37.469Z, 59.46
2023-01-11T12:05:37.425Z, 67.08
2023-01-11T12:06:37.508Z, 59.87
2023-01-11T12:07:49.669Z, 52.90
2023-01-11T12:08:37.502Z, 53.94
2023-01-11T12:09:37.493Z, 55.14
2023-01-11T12:10:37.491Z, 56.86
2023-01-11T12:11:37.493Z, 58.07
2023-01-11T12:12:37.503Z, 59.00
2023-01-11T12:13:37.578Z, 59.60
2023-01-11T12:14:37.548Z, 59.99
2023-01-11T12:15:37.541Z, 60.28
2023-01-11T12:16:37.638Z, 60.46
2023-01-11T12:17:37.546Z, 60.38
2023-01-11T12:18:37.571Z, 60.46
2023-01-11T12:19:37.582Z, 60.46
2023-01-11T12:20:37.582Z, 60.39
2023-01-11T12:21:37.595Z, 60.33
2023-01-11T12:22:37.682Z, 60.21
2023-01-11T12:23:37.661Z, 60.12
2023-01-11T12:24:37.714Z, 59.98
2023-01-11T12:25:37.678Z, 59.84
2023-01-11T12:26:37.851Z, 59.68
2023-01-11T12:27:37.719Z, 59.51
2023-01-11T12:28:37.684Z, 59.31
2023-01-11T12:29:37.748Z, 59.17
2023-01-11T12:30:37.823Z, 59.02
2023-01-11T12:31:37.781Z, 58.83
2023-01-11T12:32:37.791Z, 58.65
2023-01-11T12:33:37.771Z, 58.52
2023-01-11T12:34:37.767Z, 58.37